createdAt,value
2018-06-18T00:03:34.625Z,100744.00
2018-06-18T00:08:37.774Z,100748.00
2018-06-18T00:13:40.787Z,100751.00
2018-06-18T00:18:43.991Z,100754.00
2018-06-18T00:23:47.031Z,100764.00
2018-06-18T00:28:50.031Z,100767.00
2018-06-18T00:33:53.313Z,100762.00
2018-06-18T00:38:56.262Z,100773.00
2018-06-18T00:43:59.443Z,100774.00
2018-06-18T00:49:02.623Z,100773.00
2018-06-18T00:54:05.731Z,100771.00
2018-06-18T00:59:08.684Z,100764.00
2018-06-18T01:04:11.657Z,100771.00
2018-06-18T01:09:14.839Z,100768.00
2018-06-18T01:14:21.325Z,100767.00
2018-06-18T01:19:24.284Z,100779.00
2018-06-18T01:25:06.005Z,100778.00
2018-06-18T01:30:09.155Z,100769.00
2018-06-18T01:35:12.409Z,100764.00
2018-06-18T01:40:15.564Z,100761.00
2018-06-18T01:45:18.821Z,100764.00
2018-06-18T01:50:21.797Z,100759.00
2018-06-18T01:55:24.788Z,100761.00
2018-06-18T02:00:27.752Z,100743.00
2018-06-18T02:05:30.932Z,100749.00
2018-06-18T02:10:34.091Z,100747.00
2018-06-18T02:15:37.069Z,100735.00
2018-06-18T02:20:40.170Z,100709.00
2018-06-18T02:25:43.147Z,100734.00
2018-06-18T02:30:51.958Z,100732.00
2018-06-18T02:36:00.834Z,100739.00
2018-06-18T02:41:04.169Z,100748.00
2018-06-18T02:46:07.207Z,100737.00
2018-06-18T02:51:10.184Z,100743.00
2018-06-18T02:56:13.232Z,100774.00
2018-06-18T03:01:16.432Z,100780.00
2018-06-18T03:06:19.640Z,100763.00
2018-06-18T03:11:22.850Z,100781.00
2018-06-18T03:16:25.897Z,100784.00
2018-06-18T03:21:34.544Z,100788.00
2018-06-18T03:26:43.700Z,100778.00
2018-06-18T03:31:46.934Z,100780.00
2018-06-18T03:36:49.905Z,100771.00
2018-06-18T03:41:53.063Z,100783.00
2018-06-18T03:46:58.717Z,100793.00
2018-06-18T03:52:01.716Z,100779.00
2018-06-18T03:57:04.771Z,100779.00
2018-06-18T04:02:29.432Z,100767.00
2018-06-18T04:07:39.719Z,100778.00
2018-06-18T04:12:42.915Z,100785.00
2018-06-18T04:17:45.893Z,100786.00
2018-06-18T04:22:49.752Z,100796.00
2018-06-18T04:27:52.931Z,100804.00
2018-06-18T04:32:55.899Z,100794.00
2018-06-18T04:37:58.876Z,100796.00
2018-06-18T04:43:07.564Z,100793.00
2018-06-18T04:48:16.214Z,100782.00
2018-06-18T04:53:19.324Z,100784.00
2018-06-18T04:58:22.495Z,100787.00
2018-06-18T05:03:25.485Z,100787.00
2018-06-18T05:10:45.564Z,100770.00
2018-06-18T05:15:50.300Z,100790.00
2018-06-18T05:20:53.250Z,100777.00
2018-06-18T05:25:59.900Z,100787.00
2018-06-18T05:31:02.888Z,100797.00
2018-06-18T05:36:06.216Z,100795.00
2018-06-18T05:41:09.231Z,100792.00
2018-06-18T05:46:12.426Z,100801.00
2018-06-18T05:51:18.265Z,100806.00
2018-06-18T05:56:21.407Z,100796.00
2018-06-18T06:01:24.422Z,100798.00
2018-06-18T06:06:27.616Z,100790.00
2018-06-18T06:11:30.582Z,100785.00
2018-06-18T06:16:33.827Z,100795.00
2018-06-18T06:21:36.827Z,100802.00
2018-06-18T06:26:40.046Z,100812.00
2018-06-18T06:31:43.244Z,100810.00
2018-06-18T06:36:46.293Z,100828.00
2018-06-18T06:41:55.807Z,100844.00
2018-06-18T06:46:58.901Z,100845.00
2018-06-18T06:52:02.224Z,100852.00
2018-06-18T06:57:05.643Z,100860.00
2018-06-18T07:02:08.960Z,100854.00
2018-06-18T07:07:11.968Z,100859.00
2018-06-18T07:12:14.935Z,100857.00
2018-06-18T07:17:17.914Z,100854.00
2018-06-18T07:22:21.165Z,100859.00
2018-06-18T07:27:24.160Z,100845.00
2018-06-18T07:32:27.175Z,100857.00
2018-06-18T07:37:30.204Z,100852.00
2018-06-18T07:42:33.231Z,100850.00
2018-06-18T07:47:36.211Z,100849.00
2018-06-18T07:52:39.487Z,100853.00
2018-06-18T07:57:42.606Z,100836.00
2018-06-18T08:02:45.902Z,100837.00
2018-06-18T08:07:48.864Z,100844.00
2018-06-18T08:12:51.874Z,100834.00
2018-06-18T08:17:54.848Z,100844.00
2018-06-18T08:22:58.004Z,100846.00
2018-06-18T08:28:01.136Z,100848.00
2018-06-18T08:33:04.436Z,100844.00
2018-06-18T08:38:07.550Z,100831.00
2018-06-18T08:43:10.598Z,100839.00
2018-06-18T08:48:18.168Z,100844.00
2018-06-18T08:53:26.897Z,100832.00
2018-06-18T08:58:35.757Z,100836.00
2018-06-18T09:03:44.604Z,100830.00
2018-06-18T09:08:54.304Z,100823.00
2018-06-18T09:13:57.388Z,100830.00
2018-06-18T09:19:00.557Z,100836.00
2018-06-18T09:24:03.565Z,100828.00
2018-06-18T09:29:06.578Z,100832.00
2018-06-18T09:34:09.563Z,100833.00
2018-06-18T09:39:12.675Z,100843.00
2018-06-18T09:44:15.681Z,100830.00
2018-06-18T09:49:24.624Z,100839.00
2018-06-18T09:54:33.186Z,100834.00
2018-06-18T09:59:41.812Z,100844.00
2018-06-18T10:04:44.949Z,100837.00
2018-06-18T10:09:47.920Z,100834.00
2018-06-18T10:14:50.908Z,100844.00
2018-06-18T10:19:53.919Z,100839.00
2018-06-18T10:24:57.008Z,100843.00
2018-06-18T10:30:00.228Z,100830.00
2018-06-18T10:35:08.845Z,100823.00
2018-06-18T10:40:17.593Z,100828.00
2018-06-18T10:45:20.595Z,100828.00
2018-06-18T10:50:23.680Z,100833.00
2018-06-18T10:55:26.775Z,100830.00
2018-06-18T11:00:29.784Z,100844.00
2018-06-18T11:05:38.632Z,100837.00
2018-06-18T11:10:41.727Z,100846.00
2018-06-18T11:15:45.019Z,100838.00
2018-06-18T11:20:53.657Z,100838.00
2018-06-18T11:26:02.294Z,100837.00
2018-06-18T11:31:05.465Z,100833.00
2018-06-18T11:36:08.464Z,100824.00
2018-06-18T11:41:11.458Z,100837.00
2018-06-18T11:46:14.663Z,100843.00
2018-06-18T11:51:17.763Z,100839.00
2018-06-18T11:56:20.895Z,100821.00
2018-06-18T12:01:29.641Z,100833.00
2018-06-18T12:06:38.273Z,100828.00
2018-06-18T12:11:42.827Z,100834.00
2018-06-18T12:16:46.056Z,100835.00
2018-06-18T12:21:49.826Z,100828.00
2018-06-18T12:26:52.936Z,100826.00
2018-06-18T12:31:55.931Z,100829.00
2018-06-18T12:36:58.982Z,100833.00
2018-06-18T12:42:05.092Z,100828.00
2018-06-18T12:47:13.755Z,100827.00
2018-06-18T12:52:22.673Z,100819.00
2018-06-18T12:57:25.781Z,100826.00
2018-06-18T13:02:35.823Z,100816.00
2018-06-18T13:07:38.883Z,100818.00
2018-06-18T13:12:41.881Z,100819.00
2018-06-18T13:17:44.909Z,100812.00
2018-06-18T13:22:47.914Z,100821.00
2018-06-18T13:27:56.940Z,100819.00
2018-06-18T13:32:59.958Z,100816.00
2018-06-18T13:38:08.547Z,100814.00
2018-06-18T13:43:17.384Z,100820.00
2018-06-18T13:48:54.009Z,100813.00
2018-06-18T13:53:56.975Z,100824.00
2018-06-18T13:59:00.031Z,100827.00
2018-06-18T14:04:03.083Z,100822.00
2018-06-18T14:09:07.511Z,100825.00
2018-06-18T14:14:10.878Z,100825.00
2018-06-18T14:19:19.601Z,100819.00
2018-06-18T14:24:22.821Z,100829.00
2018-06-18T14:29:31.537Z,100812.00
2018-06-18T14:34:40.224Z,100815.00
2018-06-18T14:39:48.904Z,100812.00
2018-06-18T14:44:51.886Z,100812.00
2018-06-18T14:49:54.984Z,100805.00
2018-06-18T14:54:58.566Z,100805.00
2018-06-18T15:00:08.257Z,100810.00
2018-06-18T15:05:11.508Z,100800.00
2018-06-18T15:10:14.864Z,100799.00
2018-06-18T15:15:23.784Z,100799.00
2018-06-18T15:20:26.804Z,100800.00
2018-06-18T15:25:34.219Z,100796.00
2018-06-18T15:30:37.284Z,100798.00
2018-06-18T15:35:40.496Z,100794.00
2018-06-18T15:40:43.563Z,100799.00
2018-06-18T15:45:46.936Z,100793.00
2018-06-18T15:50:50.134Z,100787.00
2018-06-18T15:55:53.194Z,100783.00
2018-06-18T16:00:56.289Z,100787.00
2018-06-18T16:05:59.309Z,100774.00
2018-06-18T16:11:02.300Z,100775.00
2018-06-18T16:16:05.975Z,100775.00
2018-06-18T16:21:09.485Z,100774.00
2018-06-18T16:26:12.569Z,100777.00
2018-06-18T16:31:15.585Z,100770.00
2018-06-18T16:36:18.660Z,100765.00
2018-06-18T16:41:21.664Z,100770.00
2018-06-18T16:46:24.732Z,100759.00
2018-06-18T16:51:28.120Z,100757.00
2018-06-18T16:56:31.239Z,100756.00
2018-06-18T17:01:34.328Z,100763.00
2018-06-18T17:06:37.375Z,100766.00
2018-06-18T17:11:40.449Z,100755.00
2018-06-18T17:16:43.581Z,100759.00
2018-06-18T17:21:46.486Z,100755.00
2018-06-18T17:26:49.462Z,100757.00
2018-06-18T17:31:52.483Z,100760.00
2018-06-18T17:36:55.440Z,100765.00
2018-06-18T17:41:58.585Z,100762.00
2018-06-18T17:47:01.583Z,100758.00
2018-06-18T17:52:04.612Z,100761.00
2018-06-18T17:57:07.846Z,100753.00
2018-06-18T18:02:11.121Z,100759.00
2018-06-18T18:07:14.240Z,100752.00
2018-06-18T18:12:17.693Z,100756.00
2018-06-18T18:17:20.781Z,100754.00
2018-06-18T18:22:24.127Z,100760.00
2018-06-18T18:27:27.348Z,100777.00
2018-06-18T18:32:30.565Z,100763.00
2018-06-18T18:37:33.627Z,100768.00
2018-06-18T18:42:36.676Z,100760.00
2018-06-18T18:47:39.764Z,100764.00
2018-06-18T18:52:42.843Z,100757.00
2018-06-18T18:59:27.215Z,100758.00
2018-06-18T19:05:07.258Z,100755.00
2018-06-18T19:10:17.637Z,100763.00
2018-06-18T19:15:21.296Z,100759.00
2018-06-18T19:20:35.117Z,100763.00
2018-06-18T19:25:38.384Z,100766.00
2018-06-18T19:30:45.494Z,100782.00
2018-06-18T19:35:48.773Z,100775.00
2018-06-18T19:40:51.808Z,100788.00
2018-06-18T19:45:59.185Z,100789.00
2018-06-18T19:51:02.212Z,100801.00
2018-06-18T19:56:05.811Z,100802.00
2018-06-18T20:01:09.518Z,100807.00
2018-06-18T20:06:12.680Z,100812.00
2018-06-18T20:11:15.737Z,100807.00
2018-06-18T20:16:18.907Z,100816.00
2018-06-18T20:21:21.911Z,100823.00
2018-06-18T20:26:25.066Z,100824.00
2018-06-18T20:31:28.138Z,100837.00
2018-06-18T20:36:31.140Z,100844.00
2018-06-18T20:41:34.298Z,100843.00
2018-06-18T20:46:38.013Z,100831.00
2018-06-18T20:51:41.443Z,100844.00
2018-06-18T20:56:44.623Z,100844.00
2018-06-18T21:01:47.842Z,100858.00
2018-06-18T21:06:50.984Z,100854.00
2018-06-18T21:11:54.214Z,100843.00
2018-06-18T21:16:57.376Z,100857.00
2018-06-18T21:22:00.555Z,100855.00
2018-06-18T21:27:03.975Z,100855.00
2018-06-18T21:32:07.013Z,100857.00
2018-06-18T21:37:10.198Z,100861.00
2018-06-18T21:42:13.262Z,100866.00
2018-06-18T21:47:16.460Z,100875.00
2018-06-18T21:52:19.612Z,100868.00
2018-06-18T21:57:22.832Z,100871.00
2018-06-18T22:02:25.846Z,100875.00
2018-06-18T22:07:29.070Z,100879.00
2018-06-18T22:12:32.152Z,100875.00
2018-06-18T22:17:35.320Z,100865.00
2018-06-18T22:22:38.316Z,100860.00
2018-06-18T22:27:41.360Z,100873.00
2018-06-18T22:32:44.552Z,100865.00
2018-06-18T22:37:47.860Z,100867.00
2018-06-18T22:42:50.870Z,100863.00
2018-06-18T22:47:54.088Z,100870.00
2018-06-18T22:52:57.388Z,100873.00
2018-06-18T22:58:00.413Z,100876.00
2018-06-18T23:03:03.825Z,100871.00
2018-06-18T23:08:07.124Z,100870.00
2018-06-18T23:13:10.437Z,100865.00
2018-06-18T23:18:13.747Z,100880.00
2018-06-18T23:23:16.827Z,100867.00
2018-06-18T23:28:24.687Z,100881.00
2018-06-18T23:33:27.717Z,100867.00
2018-06-18T23:38:30.688Z,100880.00
2018-06-18T23:43:33.711Z,100886.00
2018-06-18T23:48:36.664Z,100891.00
2018-06-18T23:53:39.796Z,100892.00
2018-06-18T23:58:42.878Z,100889.00
